Time;durP1;ratioP1;P1;durP2;ratioP2;P2;SDS_P1;SDS_P2;PMS_P1;PMS_P2;Temp;Humidity;BMP_temperature;BMP_pressure;BME280_temperature;BME280_humidity;BME280_pressure;Samples;Min_cycle;Max_cycle;Signal;HPM_P1;HPM_P2
2021/01/14 00:02:25;;;;;;;1.58;0.47;;;;;;;;;;4993111;28;20767;-55
2021/01/14 00:04:51;;;;;;;1.83;0.52;;;;;;;;;;4990505;28;20053;-57
2021/01/14 00:07:18;;;;;;;2.40;0.55;;;;;;;;;;4992101;28;20074;-57
2021/01/14 00:09:43;;;;;;;1.33;0.40;;;;;;;;;;4991270;28;20473;-56
2021/01/14 00:12:10;;;;;;;1.77;0.50;;;;;;;;;;4993761;28;20039;-55
2021/01/14 00:14:36;;;;;;;1.77;0.47;;;;;;;;;;4983579;28;20542;-57
2021/01/14 00:17:02;;;;;;;2.65;0.63;;;;;;;;;;4990313;28;20132;-57
2021/01/14 00:19:28;;;;;;;1.80;0.60;;;;;;;;;;4987281;28;20080;-57
2021/01/14 00:21:54;;;;;;;2.20;0.50;;;;;;;;;;4994045;28;20402;-58
2021/01/14 00:24:20;;;;;;;3.47;0.40;;;;;;;;;;4994373;28;20093;-57
2021/01/14 00:26:46;;;;;;;1.55;0.40;;;;;;;;;;4993633;28;20038;-57
2021/01/14 00:29:13;;;;;;;1.45;0.50;;;;;;;;;;4995375;28;20042;-56
2021/01/14 00:31:38;;;;;;;2.47;0.40;;;;;;;;;;4993293;28;20041;-57
2021/01/14 00:34:04;;;;;;;3.42;0.45;;;;;;;;;;4993910;28;20732;-57
2021/01/14 00:36:31;;;;;;;2.50;0.50;;;;;;;;;;4975468;28;20042;-57
2021/01/14 00:38:58;;;;;;;1.85;0.50;;;;;;;;;;4994078;28;20057;-58
2021/01/14 00:41:24;;;;;;;3.60;0.60;;;;;;;;;;4996571;28;20501;-58
2021/01/14 00:43:50;;;;;;;1.05;0.40;;;;;;;;;;4978722;28;20089;-55
2021/01/14 00:46:17;;;;;;;1.17;0.40;;;;;;;;;;4994917;28;20068;-58
2021/01/14 00:48:43;;;;;;;1.50;0.40;;;;;;;;;;4992567;28;20084;-57
2021/01/14 00:51:09;;;;;;;1.35;0.40;;;;;;;;;;4993925;28;20057;-55
2021/01/14 00:53:36;;;;;;;1.85;0.40;;;;;;;;;;4994483;28;20045;-55
2021/01/14 00:56:02;;;;;;;5.28;0.50;;;;;;;;;;4993548;28;20371;-57
2021/01/14 00:58:28;;;;;;;1.08;0.40;;;;;;;;;;4996055;28;20054;-56
2021/01/14 01:00:54;;;;;;;2.20;0.40;;;;;;;;;;4979544;28;20104;-56
2021/01/14 01:03:20;;;;;;;1.00;0.40;;;;;;;;;;4994655;28;20474;-56
2021/01/14 01:05:46;;;;;;;2.15;0.57;;;;;;;;;;4996570;28;22036;-57
2021/01/14 01:08:11;;;;;;;1.05;0.30;;;;;;;;;;4995425;28;20042;-56
2021/01/14 01:10:37;;;;;;;1.30;0.50;;;;;;;;;;4993896;28;20042;-58
2021/01/14 01:13:03;;;;;;;1.52;0.50;;;;;;;;;;4991943;28;20044;-57
2021/01/14 01:15:30;;;;;;;1.92;0.50;;;;;;;;;;4992271;28;20041;-57
2021/01/14 01:17:56;;;;;;;3.10;0.60;;;;;;;;;;4991971;28;20054;-57
2021/01/14 01:20:22;;;;;;;2.10;0.40;;;;;;;;;;4992062;28;20053;-56
2021/01/14 01:22:48;;;;;;;1.25;0.40;;;;;;;;;;4993607;28;20038;-56
2021/01/14 01:25:14;;;;;;;1.60;0.40;;;;;;;;;;4992474;28;20026;-58
2021/01/14 01:27:40;;;;;;;1.05;0.40;;;;;;;;;;4992948;28;20046;-56
2021/01/14 01:30:08;;;;;;;3.42;0.50;;;;;;;;;;4994316;28;20100;-58
2021/01/14 01:32:34;;;;;;;1.73;0.50;;;;;;;;;;4992269;28;20110;-57
2021/01/14 01:35:00;;;;;;;3.97;0.40;;;;;;;;;;4991365;28;20054;-57
2021/01/14 01:37:26;;;;;;;2.53;0.50;;;;;;;;;;4991329;28;20881;-57
2021/01/14 01:39:52;;;;;;;0.82;0.32;;;;;;;;;;4992507;28;20053;-57
2021/01/14 01:42:18;;;;;;;1.45;0.40;;;;;;;;;;4992607;28;20164;-56
2021/01/14 01:44:43;;;;;;;1.45;0.40;;;;;;;;;;4991267;28;20096;-57
2021/01/14 01:47:10;;;;;;;1.55;0.55;;;;;;;;;;4993037;28;20042;-57
2021/01/14 01:49:37;;;;;;;1.83;1.10;;;;;;;;;;4991761;28;20092;-57
2021/01/14 01:52:04;;;;;;;2.90;0.50;;;;;;;;;;4990874;28;20066;-56
2021/01/14 01:54:33;;;;;;;3.20;0.57;;;;;;;;;;4989478;28;20042;-58
2021/01/14 01:57:03;;;;;;;3.28;0.60;;;;;;;;;;4990494;28;20123;-58
2021/01/14 01:59:32;;;;;;;2.28;0.57;;;;;;;;;;4991621;28;20038;-58
2021/01/14 02:02:17;;;;;;;2.72;0.60;;;;;;;;;;4991803;28;20045;-58
2021/01/14 02:04:43;;;;;;;1.33;0.50;;;;;;;;;;4967058;28;20053;-57
2021/01/14 02:07:09;;;;;;;3.40;0.70;;;;;;;;;;4977256;28;20101;-58
2021/01/14 02:09:37;;;;;;;7.25;0.77;;;;;;;;;;4992695;28;20042;-57
2021/01/14 02:12:06;;;;;;;1.85;0.85;;;;;;;;;;4993805;28;20692;-57
2021/01/14 02:14:34;;;;;;;3.20;0.60;;;;;;;;;;4991537;28;20042;-57
2021/01/14 02:17:00;;;;;;;2.40;0.70;;;;;;;;;;4992789;28;20042;-57
2021/01/14 02:19:30;;;;;;;2.50;0.63;;;;;;;;;;4992064;28;20056;-57
2021/01/14 02:21:59;;;;;;;3.58;0.70;;;;;;;;;;4994537;28;20640;-58
2021/01/14 02:24:28;;;;;;;2.50;0.52;;;;;;;;;;4993900;28;20122;-56
2021/01/14 02:26:54;;;;;;;2.42;0.60;;;;;;;;;;4995945;28;20169;-57
2021/01/14 02:29:20;;;;;;;2.92;0.70;;;;;;;;;;4994458;28;20092;-56
2021/01/14 02:31:46;;;;;;;2.72;0.77;;;;;;;;;;4990049;28;20437;-58
2021/01/14 02:34:12;;;;;;;2.78;0.63;;;;;;;;;;4994389;28;20061;-57
2021/01/14 02:36:38;;;;;;;3.50;0.77;;;;;;;;;;4994071;28;20039;-57
2021/01/14 02:39:04;;;;;;;3.30;0.70;;;;;;;;;;4996773;28;20464;-57
2021/01/14 02:41:30;;;;;;;3.55;0.60;;;;;;;;;;4996075;28;20038;-57
2021/01/14 02:43:56;;;;;;;2.30;0.70;;;;;;;;;;4996559;28;20152;-57
2021/01/14 02:46:23;;;;;;;6.50;0.70;;;;;;;;;;4994087;28;20161;-56
2021/01/14 02:49:09;;;;;;;2.13;0.57;;;;;;;;;;4978660;28;21949;-57
2021/01/14 02:51:43;;;;;;;5.60;0.90;;;;;;;;;;4994489;28;20494;-57
2021/01/14 02:54:09;;;;;;;7.20;1.10;;;;;;;;;;4993020;28;20038;-57
2021/01/14 02:56:39;;;;;;;3.53;0.93;;;;;;;;;;4994710;28;20084;-56
2021/01/14 02:59:05;;;;;;;4.45;1.00;;;;;;;;;;4994511;28;20144;-58
2021/01/14 03:01:32;;;;;;;3.38;0.70;;;;;;;;;;4995047;28;20038;-58
2021/01/14 03:03:57;;;;;;;3.08;0.90;;;;;;;;;;4993193;28;20026;-57
2021/01/14 03:06:23;;;;;;;3.80;0.90;;;;;;;;;;4991892;28;20063;-57
2021/01/14 03:08:49;;;;;;;8.70;0.98;;;;;;;;;;4994262;28;20495;-58
2021/01/14 03:11:16;;;;;;;2.83;0.80;;;;;;;;;;4987166;28;20430;-58
2021/01/14 03:13:42;;;;;;;2.88;0.80;;;;;;;;;;4994194;28;20069;-57
2021/01/14 03:16:08;;;;;;;2.17;0.60;;;;;;;;;;4995638;28;21182;-57
2021/01/14 03:18:34;;;;;;;4.75;0.80;;;;;;;;;;4993971;28;20052;-58
2021/01/14 03:21:00;;;;;;;2.50;0.70;;;;;;;;;;4993930;28;20042;-57
2021/01/14 03:23:26;;;;;;;1.90;0.50;;;;;;;;;;4995684;28;20069;-57
2021/01/14 03:25:52;;;;;;;2.25;0.45;;;;;;;;;;4993896;28;20042;-57
2021/01/14 03:28:17;;;;;;;3.58;0.70;;;;;;;;;;4996724;28;20127;-56
2021/01/14 03:30:43;;;;;;;3.00;0.85;;;;;;;;;;4993703;28;20034;-58
2021/01/14 03:33:09;;;;;;;3.33;0.95;;;;;;;;;;4995829;28;20070;-57
2021/01/14 03:35:35;;;;;;;2.42;0.88;;;;;;;;;;4993654;28;20038;-57
2021/01/14 03:38:01;;;;;;;2.35;0.60;;;;;;;;;;4995714;28;20057;-57
2021/01/14 03:40:27;;;;;;;2.20;0.60;;;;;;;;;;4995073;28;20188;-57
2021/01/14 03:42:54;;;;;;;2.92;0.75;;;;;;;;;;4995364;28;20063;-56
2021/01/14 03:45:20;;;;;;;1.70;0.50;;;;;;;;;;4994358;28;20490;-57
2021/01/14 03:47:46;;;;;;;3.10;0.50;;;;;;;;;;4994163;28;20059;-58
2021/01/14 03:50:12;;;;;;;1.67;0.50;;;;;;;;;;4992968;28;20066;-57
2021/01/14 03:52:38;;;;;;;1.67;0.50;;;;;;;;;;4994308;28;20121;-57
2021/01/14 03:55:04;;;;;;;1.55;0.45;;;;;;;;;;4994418;28;20053;-57
2021/01/14 03:57:34;;;;;;;1.67;0.52;;;;;;;;;;4994453;28;20058;-58
2021/01/14 03:59:59;;;;;;;2.03;0.50;;;;;;;;;;4994193;28;20531;-58
2021/01/14 04:02:25;;;;;;;1.30;0.50;;;;;;;;;;4992745;28;20050;-57
2021/01/14 04:04:51;;;;;;;1.83;0.40;;;;;;;;;;4992268;28;20049;-58
2021/01/14 04:07:17;;;;;;;1.33;0.47;;;;;;;;;;4990638;28;20100;-57
2021/01/14 04:09:43;;;;;;;1.23;0.40;;;;;;;;;;4993354;28;20395;-58
2021/01/14 04:12:09;;;;;;;0.57;0.35;;;;;;;;;;4994460;28;20034;-57
2021/01/14 04:14:35;;;;;;;0.40;0.30;;;;;;;;;;4992079;28;20058;-57
2021/01/14 04:17:01;;;;;;;1.73;0.50;;;;;;;;;;4991936;28;20145;-57
2021/01/14 04:19:27;;;;;;;2.20;0.57;;;;;;;;;;4991100;28;20045;-57
2021/01/14 04:21:53;;;;;;;1.75;0.50;;;;;;;;;;4989593;28;20210;-57
2021/01/14 04:24:19;;;;;;;1.60;0.50;;;;;;;;;;4988832;28;20134;-57
2021/01/14 04:26:46;;;;;;;2.42;0.50;;;;;;;;;;4992282;28;20049;-57
2021/01/14 04:29:12;;;;;;;2.50;0.50;;;;;;;;;;4991195;28;20120;-56
2021/01/14 04:31:38;;;;;;;1.20;0.40;;;;;;;;;;4992102;28;20551;-58
2021/01/14 04:34:04;;;;;;;2.42;0.55;;;;;;;;;;4988728;28;20064;-58
2021/01/14 04:36:30;;;;;;;1.58;0.50;;;;;;;;;;4990495;28;20034;-58
2021/01/14 04:38:56;;;;;;;3.97;0.50;;;;;;;;;;4991042;28;20447;-57
2021/01/14 04:41:22;;;;;;;1.67;0.40;;;;;;;;;;4975716;28;20121;-55
2021/01/14 04:43:49;;;;;;;3.97;0.50;;;;;;;;;;4989554;28;20111;-56
2021/01/14 04:46:15;;;;;;;2.45;0.40;;;;;;;;;;4989126;28;20079;-56
2021/01/14 04:48:43;;;;;;;3.00;0.55;;;;;;;;;;4960294;28;20092;-57
2021/01/14 04:51:09;;;;;;;2.67;0.60;;;;;;;;;;4991918;28;20045;-55
2021/01/14 04:53:36;;;;;;;1.35;0.40;;;;;;;;;;4991037;28;20048;-57
2021/01/14 04:56:06;;;;;;;0.60;0.30;;;;;;;;;;4974636;28;20034;-57
2021/01/14 04:58:36;;;;;;;0.85;0.30;;;;;;;;;;4991450;28;20581;-56
2021/01/14 05:01:05;;;;;;;1.23;0.40;;;;;;;;;;4992444;28;20137;-57
2021/01/14 05:03:33;;;;;;;1.50;0.50;;;;;;;;;;4989545;28;20042;-57
2021/01/14 05:05:59;;;;;;;2.13;0.40;;;;;;;;;;4990225;28;20046;-55
2021/01/14 05:08:27;;;;;;;1.77;0.50;;;;;;;;;;4989686;28;20068;-56
2021/01/14 05:10:53;;;;;;;1.98;0.50;;;;;;;;;;4992844;28;20037;-56
2021/01/14 05:13:19;;;;;;;2.90;0.40;;;;;;;;;;4990739;28;20034;-56
2021/01/14 05:15:45;;;;;;;0.68;0.35;;;;;;;;;;4989894;28;20046;-57
2021/01/14 05:18:11;;;;;;;1.38;0.40;;;;;;;;;;4990634;28;20050;-57
2021/01/14 05:20:37;;;;;;;1.58;0.45;;;;;;;;;;4990961;28;20069;-55
2021/01/14 05:23:04;;;;;;;1.98;0.50;;;;;;;;;;4991240;28;20413;-57
2021/01/14 05:25:31;;;;;;;1.52;0.50;;;;;;;;;;4990797;28;20076;-57
2021/01/14 05:28:10;;;;;;;2.40;0.70;;;;;;;;;;4973802;28;20072;-54
2021/01/14 05:30:36;;;;;;;2.55;0.50;;;;;;;;;;4973313;28;20165;-57
2021/01/14 05:33:03;;;;;;;1.95;0.43;;;;;;;;;;4991756;28;20467;-57
2021/01/14 05:35:29;;;;;;;1.27;0.40;;;;;;;;;;4973301;28;20121;-56
2021/01/14 05:38:00;;;;;;;1.23;0.40;;;;;;;;;;4992040;28;20057;-57
2021/01/14 05:40:28;;;;;;;1.67;0.40;;;;;;;;;;4991946;28;20076;-57
2021/01/14 05:43:07;;;;;;;1.33;0.40;;;;;;;;;;4991495;28;20137;-57
2021/01/14 05:45:33;;;;;;;1.23;0.35;;;;;;;;;;4989280;28;20093;-57
2021/01/14 05:48:12;;;;;;;2.08;0.40;;;;;;;;;;4990432;28;20398;-58
2021/01/14 05:50:56;;;;;;;1.35;0.40;;;;;;;;;;4990295;28;20496;-58
2021/01/14 05:53:24;;;;;;;2.22;0.50;;;;;;;;;;4991231;28;20433;-57
2021/01/14 05:55:55;;;;;;;1.25;0.45;;;;;;;;;;4989679;28;20122;-57
2021/01/14 05:58:25;;;;;;;1.20;0.40;;;;;;;;;;4991781;28;20038;-57
2021/01/14 06:00:51;;;;;;;3.03;0.43;;;;;;;;;;4985565;28;20474;-57
2021/01/14 06:03:30;;;;;;;1.35;0.45;;;;;;;;;;4992367;28;22138;-57
2021/01/14 06:05:56;;;;;;;1.90;0.50;;;;;;;;;;4991246;28;20112;-55
2021/01/14 06:08:23;;;;;;;1.20;0.40;;;;;;;;;;4992219;28;20046;-57
2021/01/14 06:10:50;;;;;;;1.20;0.40;;;;;;;;;;4992457;28;20881;-57
2021/01/14 06:13:16;;;;;;;2.55;0.47;;;;;;;;;;4991841;28;20039;-57
2021/01/14 06:15:42;;;;;;;0.50;0.40;;;;;;;;;;4990402;28;20031;-56
2021/01/14 06:18:09;;;;;;;4.90;0.40;;;;;;;;;;4990448;28;20108;-56
2021/01/14 06:20:36;;;;;;;3.03;0.43;;;;;;;;;;4990131;28;20045;-56
2021/01/14 06:23:02;;;;;;;0.98;0.30;;;;;;;;;;4989814;28;20088;-57
2021/01/14 06:25:28;;;;;;;1.80;0.38;;;;;;;;;;4991472;28;20038;-55
2021/01/14 06:27:54;;;;;;;2.05;0.32;;;;;;;;;;4990618;28;20069;-57
2021/01/14 06:30:20;;;;;;;5.65;0.60;;;;;;;;;;4990798;28;20042;-56
2021/01/14 06:32:50;;;;;;;1.17;0.40;;;;;;;;;;4991602;28;20042;-56
2021/01/14 06:35:16;;;;;;;0.82;0.30;;;;;;;;;;4991500;28;20061;-56
2021/01/14 06:37:46;;;;;;;0.93;0.30;;;;;;;;;;4972653;28;20487;-57
2021/01/14 06:40:18;;;;;;;0.63;0.40;;;;;;;;;;4992169;28;20830;-57
2021/01/14 06:42:48;;;;;;;1.85;0.45;;;;;;;;;;4989654;28;20046;-55
2021/01/14 06:45:18;;;;;;;0.77;0.30;;;;;;;;;;4992168;28;20046;-56
2021/01/14 06:47:45;;;;;;;0.52;0.30;;;;;;;;;;4990606;28;20046;-56
2021/01/14 06:50:27;;;;;;;1.95;0.40;;;;;;;;;;4990290;28;20109;-55
2021/01/14 06:53:13;;;;;;;0.95;0.40;;;;;;;;;;4988706;28;20101;-56
2021/01/14 06:55:39;;;;;;;0.73;0.35;;;;;;;;;;4989286;28;20041;-56
2021/01/14 06:58:09;;;;;;;1.05;0.32;;;;;;;;;;4991092;28;20089;-56
2021/01/14 07:00:45;;;;;;;0.45;0.30;;;;;;;;;;4989993;28;20038;-56
2021/01/14 07:03:14;;;;;;;1.45;0.30;;;;;;;;;;4992895;28;20434;-56
2021/01/14 07:05:55;;;;;;;0.65;0.40;;;;;;;;;;4991798;28;20088;-56
2021/01/14 07:08:31;;;;;;;0.55;0.30;;;;;;;;;;4991441;28;20034;-56
2021/01/14 07:11:07;;;;;;;0.40;0.30;;;;;;;;;;4994560;28;20049;-56
2021/01/14 07:13:37;;;;;;;1.10;0.40;;;;;;;;;;4995423;28;20751;-54
2021/01/14 07:16:03;;;;;;;0.95;0.30;;;;;;;;;;4994653;28;20419;-57
2021/01/14 07:18:30;;;;;;;1.17;0.40;;;;;;;;;;4993289;28;20129;-57
2021/01/14 07:20:59;;;;;;;0.85;0.35;;;;;;;;;;4995624;28;20562;-55
2021/01/14 07:23:26;;;;;;;0.98;0.30;;;;;;;;;;4992843;28;20399;-55
2021/01/14 07:25:53;;;;;;;3.65;0.40;;;;;;;;;;4994061;28;20498;-55
2021/01/14 07:28:19;;;;;;;1.05;0.40;;;;;;;;;;4994590;28;20069;-56
2021/01/14 07:30:45;;;;;;;0.90;0.40;;;;;;;;;;4994451;28;20498;-55
2021/01/14 07:33:11;;;;;;;0.75;0.35;;;;;;;;;;4994896;28;20402;-55
2021/01/14 07:35:41;;;;;;;0.90;0.38;;;;;;;;;;4994001;28;20166;-56
2021/01/14 07:38:11;;;;;;;3.08;0.40;;;;;;;;;;4993629;28;20135;-56
2021/01/14 07:40:37;;;;;;;0.50;0.30;;;;;;;;;;4994783;28;21536;-56
2021/01/14 07:43:05;;;;;;;0.80;0.35;;;;;;;;;;4993829;28;20101;-56
2021/01/14 07:45:31;;;;;;;0.52;0.30;;;;;;;;;;4994039;28;20073;-57
2021/01/14 07:48:15;;;;;;;3.53;0.40;;;;;;;;;;4995258;28;20497;-56
2021/01/14 07:50:40;;;;;;;;;;;;;;;;;;4993664;28;20041;-58
2021/01/14 07:53:13;;;;;;;1.42;0.40;;;;;;;;;;4993643;28;19928;-56
2021/01/14 07:55:39;;;;;;;1.52;0.40;;;;;;;;;;4993940;28;20092;-56
2021/01/14 07:58:23;;;;;;;1.65;0.40;;;;;;;;;;4994290;28;20444;-57
2021/01/14 08:01:01;;;;;;;0.43;0.32;;;;;;;;;;4977740;28;20060;-56
2021/01/14 08:03:31;;;;;;;0.47;0.30;;;;;;;;;;4993299;28;20054;-56
2021/01/14 08:05:57;;;;;;;0.57;0.35;;;;;;;;;;4994835;28;20057;-57
2021/01/14 08:08:34;;;;;;;0.77;0.30;;;;;;;;;;4994058;28;20056;-57
2021/01/14 08:11:25;;;;;;;0.60;0.38;;;;;;;;;;4993892;28;20065;-56
2021/01/14 08:14:00;;;;;;;1.25;0.40;;;;;;;;;;4991595;28;20045;-57
2021/01/14 08:16:32;;;;;;;1.05;0.30;;;;;;;;;;4993762;28;20038;-56
2021/01/14 08:19:11;;;;;;;0.90;0.30;;;;;;;;;;4994876;28;20065;-57
2021/01/14 08:21:37;;;;;;;0.57;0.30;;;;;;;;;;4994206;28;20044;-56
2021/01/14 08:24:02;;;;;;;1.13;0.40;;;;;;;;;;4992711;28;20328;-56
2021/01/14 08:26:28;;;;;;;0.65;0.40;;;;;;;;;;4993689;28;20044;-57
2021/01/14 08:29:00;;;;;;;0.60;0.30;;;;;;;;;;4977407;28;20084;-55
2021/01/14 08:31:52;;;;;;;0.65;0.30;;;;;;;;;;4992252;28;20034;-56
2021/01/14 08:34:21;;;;;;;1.10;0.40;;;;;;;;;;4988732;28;20148;-56
2021/01/14 08:36:48;;;;;;;0.73;0.40;;;;;;;;;;4993397;28;20410;-57
2021/01/14 08:39:18;;;;;;;0.65;0.30;;;;;;;;;;4994238;28;20082;-58
2021/01/14 08:41:44;;;;;;;0.75;0.40;;;;;;;;;;4993543;28;20053;-57
2021/01/14 08:44:10;;;;;;;0.47;0.30;;;;;;;;;;4993163;28;20046;-57
2021/01/14 08:46:46;;;;;;;0.88;0.40;;;;;;;;;;4992479;28;20116;-57
2021/01/14 08:49:16;;;;;;;3.38;0.30;;;;;;;;;;4995000;28;20038;-57
2021/01/14 08:51:42;;;;;;;1.27;0.40;;;;;;;;;;4992263;28;20121;-55
2021/01/14 08:54:09;;;;;;;0.57;0.30;;;;;;;;;;4993269;28;20100;-57
2021/01/14 08:56:35;;;;;;;1.27;0.30;;;;;;;;;;4992382;28;20034;-57
2021/01/14 08:59:16;;;;;;;0.68;0.40;;;;;;;;;;4993854;28;20058;-55
2021/01/14 09:01:42;;;;;;;3.42;0.40;;;;;;;;;;4993643;28;20042;-55
2021/01/14 09:04:08;;;;;;;0.88;0.40;;;;;;;;;;4995009;28;20117;-55
2021/01/14 09:06:38;;;;;;;0.38;0.30;;;;;;;;;;4992775;28;20042;-56
2021/01/14 09:09:14;;;;;;;1.27;0.40;;;;;;;;;;4994448;28;20042;-56
2021/01/14 09:11:40;;;;;;;0.63;0.40;;;;;;;;;;4993117;28;20117;-56
2021/01/14 09:14:10;;;;;;;0.65;0.40;;;;;;;;;;4995546;28;20109;-56
2021/01/14 09:16:36;;;;;;;0.55;0.30;;;;;;;;;;4995132;28;21916;-55
2021/01/14 09:19:12;;;;;;;0.77;0.40;;;;;;;;;;4994553;28;20391;-56
2021/01/14 09:21:38;;;;;;;2.22;0.40;;;;;;;;;;4992429;28;20169;-56
2021/01/14 09:24:10;;;;;;;0.60;0.40;;;;;;;;;;4992635;28;20522;-54
2021/01/14 09:26:40;;;;;;;0.82;0.40;;;;;;;;;;4990422;28;20037;-53
2021/01/14 09:29:07;;;;;;;0.65;0.30;;;;;;;;;;4992903;28;20046;-55
2021/01/14 09:31:36;;;;;;;0.30;0.30;;;;;;;;;;4992978;28;20065;-57
2021/01/14 09:34:02;;;;;;;0.60;0.32;;;;;;;;;;4993688;28;20584;-54
2021/01/14 09:36:29;;;;;;;0.90;0.30;;;;;;;;;;4993830;28;20056;-56
2021/01/14 09:38:57;;;;;;;1.45;0.30;;;;;;;;;;4992630;28;20057;-57
2021/01/14 09:41:36;;;;;;;0.35;0.30;;;;;;;;;;4992503;28;20125;-55
2021/01/14 09:44:06;;;;;;;0.52;0.30;;;;;;;;;;4993139;28;20077;-56
2021/01/14 09:46:35;;;;;;;0.32;0.30;;;;;;;;;;4991989;28;20038;-55
2021/01/14 09:49:03;;;;;;;1.42;0.40;;;;;;;;;;4992339;28;20756;-54
2021/01/14 09:51:30;;;;;;;1.08;0.38;;;;;;;;;;4990765;28;20050;-56
2021/01/14 09:53:56;;;;;;;0.95;0.40;;;;;;;;;;4992122;28;21893;-56
2021/01/14 09:56:35;;;;;;;0.30;0.30;;;;;;;;;;4991802;28;20105;-56
2021/01/14 09:59:09;;;;;;;3.05;0.50;;;;;;;;;;4981090;28;20470;-56
2021/01/14 10:01:39;;;;;;;1.17;0.45;;;;;;;;;;4993831;28;20045;-57
2021/01/14 10:04:16;;;;;;;0.35;0.30;;;;;;;;;;4992762;28;20038;-54
2021/01/14 10:06:53;;;;;;;0.45;0.35;;;;;;;;;;4993097;28;20077;-55
2021/01/14 10:09:19;;;;;;;0.57;0.30;;;;;;;;;;4990677;28;20124;-56
2021/01/14 10:11:45;;;;;;;0.43;0.30;;;;;;;;;;4990562;28;20078;-56
2021/01/14 10:14:22;;;;;;;1.30;0.47;;;;;;;;;;4991658;28;20118;-57
2021/01/14 10:16:48;;;;;;;5.45;0.70;;;;;;;;;;4991564;28;20045;-57
2021/01/14 10:19:18;;;;;;;0.73;0.30;;;;;;;;;;4991913;28;20100;-57
2021/01/14 10:21:45;;;;;;;0.70;0.32;;;;;;;;;;4990108;28;20061;-56
2021/01/14 10:24:22;;;;;;;0.30;0.30;;;;;;;;;;4991444;28;20656;-56
2021/01/14 10:26:48;;;;;;;0.93;0.30;;;;;;;;;;4989313;28;20133;-56
2021/01/14 10:29:38;;;;;;;0.75;0.40;;;;;;;;;;4993423;28;20103;-57
2021/01/14 10:32:06;;;;;;;0.32;0.30;;;;;;;;;;4990306;28;20038;-56
2021/01/14 10:34:39;;;;;;;0.43;0.40;;;;;;;;;;4988093;28;20057;-54
2021/01/14 10:37:05;;;;;;;0.73;0.30;;;;;;;;;;4990877;28;20155;-56
2021/01/14 10:39:40;;;;;;;1.23;0.30;;;;;;;;;;4991822;28;20303;-56
2021/01/14 10:42:25;;;;;;;0.63;0.40;;;;;;;;;;4991181;28;20070;-57
2021/01/14 10:44:52;;;;;;;1.27;0.50;;;;;;;;;;4992856;28;20045;-57
2021/01/14 10:47:19;;;;;;;0.30;0.30;;;;;;;;;;4994947;28;20045;-56
2021/01/14 10:49:45;;;;;;;0.43;0.40;;;;;;;;;;4995697;28;20460;-56
2021/01/14 10:52:11;;;;;;;0.35;0.30;;;;;;;;;;4996565;28;20041;-57
2021/01/14 10:54:37;;;;;;;1.52;0.40;;;;;;;;;;4995224;28;20049;-57
2021/01/14 10:57:03;;;;;;;0.50;0.30;;;;;;;;;;4995686;28;20050;-56
2021/01/14 10:59:29;;;;;;;1.55;0.30;;;;;;;;;;4995267;28;20072;-55
2021/01/14 11:02:05;;;;;;;0.80;0.30;;;;;;;;;;4995813;28;20046;-56
2021/01/14 11:04:31;;;;;;;1.15;0.35;;;;;;;;;;4993641;28;20037;-56
2021/01/14 11:06:57;;;;;;;0.85;0.30;;;;;;;;;;4996904;28;20089;-56
2021/01/14 11:09:23;;;;;;;1.30;0.40;;;;;;;;;;4993258;28;20045;-53
2021/01/14 11:11:49;;;;;;;0.32;0.30;;;;;;;;;;4994480;28;21292;-56
2021/01/14 11:14:16;;;;;;;0.30;0.30;;;;;;;;;;4995714;28;20045;-55
2021/01/14 11:16:41;;;;;;;0.25;0.25;;;;;;;;;;4994461;28;20038;-56
2021/01/14 11:19:08;;;;;;;1.27;0.43;;;;;;;;;;4994948;28;20405;-56
2021/01/14 11:21:35;;;;;;;0.55;0.30;;;;;;;;;;4981115;28;20064;-56
2021/01/14 11:24:01;;;;;;;0.38;0.32;;;;;;;;;;4995471;28;20116;-56
2021/01/14 11:26:31;;;;;;;0.40;0.30;;;;;;;;;;4993705;28;20057;-56
2021/01/14 11:28:57;;;;;;;0.30;0.30;;;;;;;;;;4995975;28;20118;-53
2021/01/14 11:31:24;;;;;;;0.38;0.30;;;;;;;;;;4993030;28;20037;-56
2021/01/14 11:33:50;;;;;;;0.45;0.30;;;;;;;;;;4994490;28;20034;-55
2021/01/14 11:36:20;;;;;;;0.85;0.30;;;;;;;;;;4994488;28;20187;-54
2021/01/14 11:38:46;;;;;;;0.20;0.20;;;;;;;;;;4995828;28;20054;-56
2021/01/14 11:41:16;;;;;;;1.08;0.40;;;;;;;;;;4994094;28;20049;-54
2021/01/14 11:43:41;;;;;;;0.77;0.30;;;;;;;;;;4992350;28;20038;-56
2021/01/14 11:46:07;;;;;;;0.60;0.30;;;;;;;;;;4993411;28;20365;-56
2021/01/14 11:48:33;;;;;;;0.30;0.30;;;;;;;;;;4994544;28;20431;-56
2021/01/14 11:50:59;;;;;;;0.80;0.30;;;;;;;;;;4995626;28;20057;-55
2021/01/14 11:53:25;;;;;;;0.38;0.30;;;;;;;;;;4995613;28;20050;-57
2021/01/14 11:55:51;;;;;;;0.93;0.40;;;;;;;;;;4996338;28;20549;-57
2021/01/14 11:58:17;;;;;;;1.98;0.40;;;;;;;;;;4994337;28;20065;-56
2021/01/14 12:00:43;;;;;;;0.95;0.40;;;;;;;;;;4993195;28;20073;-57
2021/01/14 12:03:09;;;;;;;0.55;0.30;;;;;;;;;;4994746;28;20107;-57
2021/01/14 12:05:35;;;;;;;0.30;0.30;;;;;;;;;;4992208;28;20041;-54
2021/01/14 12:08:01;;;;;;;0.57;0.30;;;;;;;;;;4993280;28;20046;-56
2021/01/14 12:10:27;;;;;;;0.47;0.30;;;;;;;;;;4993730;28;20048;-57
2021/01/14 12:12:53;;;;;;;1.65;0.40;;;;;;;;;;4994888;28;20054;-57
2021/01/14 12:15:19;;;;;;;1.08;0.30;;;;;;;;;;4990394;28;20049;-56
2021/01/14 12:17:45;;;;;;;2.50;0.32;;;;;;;;;;4992700;28;20100;-57
2021/01/14 12:20:11;;;;;;;1.13;0.40;;;;;;;;;;4993142;28;20054;-57
2021/01/14 12:22:39;;;;;;;22.77;2.15;;;;;;;;;;4993268;28;20474;-54
2021/01/14 12:25:06;;;;;;;0.60;0.40;;;;;;;;;;4992456;28;20054;-56
2021/01/14 12:27:32;;;;;;;0.38;0.30;;;;;;;;;;4991413;28;20034;-57
2021/01/14 12:29:58;;;;;;;0.35;0.30;;;;;;;;;;4991936;28;20111;-57
2021/01/14 12:32:24;;;;;;;1.70;0.40;;;;;;;;;;4991895;28;20045;-56
2021/01/14 12:34:50;;;;;;;0.30;0.30;;;;;;;;;;4991753;28;20144;-56
2021/01/14 12:37:16;;;;;;;0.40;0.30;;;;;;;;;;4995832;28;20080;-54
2021/01/14 12:39:42;;;;;;;0.90;0.32;;;;;;;;;;4992179;28;20796;-55
2021/01/14 12:42:11;;;;;;;1.67;0.40;;;;;;;;;;4992458;28;20468;-56
2021/01/14 12:44:37;;;;;;;1.95;0.32;;;;;;;;;;4992164;28;20471;-56
2021/01/14 12:47:03;;;;;;;3.90;0.30;;;;;;;;;;4991975;28;20088;-55
2021/01/14 12:49:29;;;;;;;0.30;0.30;;;;;;;;;;4993056;28;20073;-57
2021/01/14 12:51:55;;;;;;;3.65;0.95;;;;;;;;;;4992886;28;20236;-57
2021/01/14 12:54:22;;;;;;;1.20;0.40;;;;;;;;;;4992591;28;20029;-57
2021/01/14 12:56:48;;;;;;;0.75;0.38;;;;;;;;;;4993552;28;20065;-57
2021/01/14 12:59:14;;;;;;;1.48;0.52;;;;;;;;;;4993202;28;20585;-55
2021/01/14 13:01:40;;;;;;;0.70;0.30;;;;;;;;;;4993392;28;20159;-57
2021/01/14 13:04:07;;;;;;;3.05;0.40;;;;;;;;;;4991780;28;20056;-57
2021/01/14 13:06:37;;;;;;;0.32;0.30;;;;;;;;;;4989951;28;20045;-57
2021/01/14 13:09:04;;;;;;;0.43;0.25;;;;;;;;;;4986043;28;20049;-57
2021/01/14 13:11:30;;;;;;;3.55;0.40;;;;;;;;;;4994641;28;22052;-57
2021/01/14 13:13:57;;;;;;;3.00;0.60;;;;;;;;;;4990173;28;20042;-56
2021/01/14 13:16:30;;;;;;;3.47;1.05;;;;;;;;;;4992540;28;20180;-56
2021/01/14 13:18:56;;;;;;;0.35;0.30;;;;;;;;;;4990777;28;20558;-55
2021/01/14 13:21:30;;;;;;;0.88;0.30;;;;;;;;;;4994026;28;20102;-57
2021/01/14 13:23:56;;;;;;;0.75;0.30;;;;;;;;;;4991658;28;20034;-55
2021/01/14 13:26:22;;;;;;;1.02;0.40;;;;;;;;;;4990296;28;20046;-56
2021/01/14 13:28:50;;;;;;;1.58;0.40;;;;;;;;;;4993070;28;20101;-55
2021/01/14 13:31:16;;;;;;;0.52;0.40;;;;;;;;;;4993639;28;20069;-56
2021/01/14 13:33:42;;;;;;;1.40;0.50;;;;;;;;;;4980903;28;20563;-57
2021/01/14 13:36:08;;;;;;;0.40;0.30;;;;;;;;;;4973445;28;20411;-56
2021/01/14 13:38:34;;;;;;;1.33;0.40;;;;;;;;;;4971064;28;20141;-57
2021/01/14 13:40:59;;;;;;;2.65;0.30;;;;;;;;;;4973619;28;20157;-56
2021/01/14 13:43:25;;;;;;;0.73;0.30;;;;;;;;;;4971958;28;20062;-54
2021/01/14 13:45:57;;;;;;;2.40;0.40;;;;;;;;;;4972539;28;20510;-57
2021/01/14 13:48:23;;;;;;;1.33;0.38;;;;;;;;;;4973255;28;20427;-56
2021/01/14 13:50:49;;;;;;;1.10;0.40;;;;;;;;;;4973278;28;20034;-55
2021/01/14 13:53:15;;;;;;;0.50;0.32;;;;;;;;;;4970612;28;20053;-55
2021/01/14 13:55:44;;;;;;;4.15;0.57;;;;;;;;;;4971402;28;20126;-55
2021/01/14 13:58:13;;;;;;;1.08;0.40;;;;;;;;;;4973474;28;20116;-57
2021/01/14 14:00:45;;;;;;;3.47;0.82;;;;;;;;;;4971744;28;20050;-56
2021/01/14 14:03:11;;;;;;;0.90;0.40;;;;;;;;;;4973227;28;20042;-56
2021/01/14 14:05:41;;;;;;;3.53;0.52;;;;;;;;;;4970450;28;20049;-55
2021/01/14 14:08:07;;;;;;;4.82;0.60;;;;;;;;;;4971330;28;20440;-56
2021/01/14 14:10:33;;;;;;;0.98;0.47;;;;;;;;;;4973659;28;20045;-56
2021/01/14 14:12:59;;;;;;;1.55;0.47;;;;;;;;;;4972402;28;20046;-57
2021/01/14 14:15:25;;;;;;;2.55;0.60;;;;;;;;;;4973639;28;20031;-57
2021/01/14 14:17:54;;;;;;;2.83;0.45;;;;;;;;;;4972528;28;20077;-56
2021/01/14 14:20:20;;;;;;;2.35;0.50;;;;;;;;;;4969946;28;20484;-57
2021/01/14 14:22:46;;;;;;;0.35;0.30;;;;;;;;;;4971565;28;20576;-57
2021/01/14 14:25:13;;;;;;;0.95;0.40;;;;;;;;;;4961460;28;20042;-56
2021/01/14 14:27:39;;;;;;;0.65;0.30;;;;;;;;;;4965178;28;20042;-57
2021/01/14 14:30:05;;;;;;;3.17;0.47;;;;;;;;;;4972087;28;20464;-57
2021/01/14 14:32:31;;;;;;;0.80;0.40;;;;;;;;;;4972198;28;20069;-57
2021/01/14 14:34:57;;;;;;;1.70;0.40;;;;;;;;;;4986358;28;20603;-56
2021/01/14 14:37:24;;;;;;;1.20;0.40;;;;;;;;;;4992111;28;20063;-56
2021/01/14 14:39:50;;;;;;;1.15;0.40;;;;;;;;;;4990649;28;20144;-59
2021/01/14 14:42:16;;;;;;;0.57;0.30;;;;;;;;;;4991141;28;20856;-56
2021/01/14 14:44:42;;;;;;;1.65;0.50;;;;;;;;;;4991182;28;20038;-56
2021/01/14 14:47:08;;;;;;;0.90;0.40;;;;;;;;;;4992493;28;20038;-57
2021/01/14 14:49:35;;;;;;;0.95;0.40;;;;;;;;;;4992067;28;20061;-56